sensor_id;sensor_type;location;lat;lon;timestamp;P1;durP1;ratioP1;P2;durP2;ratioP2
42666;SDS011;28280;49.646;14.130;2022-08-21T00:03:20;4.72;;;4.28;;
42666;SDS011;28280;49.646;14.130;2022-08-21T00:08:51;4.90;;;4.15;;
42666;SDS011;28280;49.646;14.130;2022-08-21T00:14:22;4.65;;;4.00;;
42666;SDS011;28280;49.646;14.130;2022-08-21T00:19:54;6.22;;;4.68;;
42666;SDS011;28280;49.646;14.130;2022-08-21T00:25:25;5.40;;;4.38;;
42666;SDS011;28280;49.646;14.130;2022-08-21T00:30:56;6.35;;;4.13;;
42666;SDS011;28280;49.646;14.130;2022-08-21T00:36:29;4.60;;;4.15;;
42666;SDS011;28280;49.646;14.130;2022-08-21T00:42:03;4.63;;;4.03;;
42666;SDS011;28280;49.646;14.130;2022-08-21T00:47:35;5.43;;;4.18;;
42666;SDS011;28280;49.646;14.130;2022-08-21T00:53:08;5.07;;;4.40;;
42666;SDS011;28280;49.646;14.130;2022-08-21T00:58:41;4.95;;;4.32;;
42666;SDS011;28280;49.646;14.130;2022-08-21T01:04:13;4.68;;;3.92;;
42666;SDS011;28280;49.646;14.130;2022-08-21T01:09:46;5.20;;;4.70;;
42666;SDS011;28280;49.646;14.130;2022-08-21T01:15:19;5.10;;;4.17;;
42666;SDS011;28280;49.646;14.130;2022-08-21T01:21:13;4.90;;;4.38;;
42666;SDS011;28280;49.646;14.130;2022-08-21T01:26:43;4.60;;;4.10;;
42666;SDS011;28280;49.646;14.130;2022-08-21T01:32:16;5.00;;;4.20;;
42666;SDS011;28280;49.646;14.130;2022-08-21T01:37:48;5.80;;;4.43;;
42666;SDS011;28280;49.646;14.130;2022-08-21T01:43:19;5.50;;;4.20;;
42666;SDS011;28280;49.646;14.130;2022-08-21T01:49:03;5.97;;;4.30;;
42666;SDS011;28280;49.646;14.130;2022-08-21T01:54:35;5.03;;;4.07;;
42666;SDS011;28280;49.646;14.130;2022-08-21T02:00:08;5.10;;;4.35;;
42666;SDS011;28280;49.646;14.130;2022-08-21T02:05:42;6.32;;;4.57;;
42666;SDS011;28280;49.646;14.130;2022-08-21T02:11:13;4.88;;;4.38;;
42666;SDS011;28280;49.646;14.130;2022-08-21T02:16:45;5.28;;;4.28;;
42666;SDS011;28280;49.646;14.130;2022-08-21T02:27:49;4.85;;;4.13;;
42666;SDS011;28280;49.646;14.130;2022-08-21T02:33:22;4.95;;;4.43;;
42666;SDS011;28280;49.646;14.130;2022-08-21T02:38:54;4.68;;;4.28;;
42666;SDS011;28280;49.646;14.130;2022-08-21T02:44:25;6.35;;;4.90;;
42666;SDS011;28280;49.646;14.130;2022-08-21T02:50:04;6.63;;;4.25;;
42666;SDS011;28280;49.646;14.130;2022-08-21T03:01:09;4.78;;;4.13;;
42666;SDS011;28280;49.646;14.130;2022-08-21T03:06:41;6.63;;;4.05;;
42666;SDS011;28280;49.646;14.130;2022-08-21T03:12:12;5.15;;;4.40;;
42666;SDS011;28280;49.646;14.130;2022-08-21T03:17:43;5.78;;;4.65;;
42666;SDS011;28280;49.646;14.130;2022-08-21T03:28:49;5.20;;;4.70;;
42666;SDS011;28280;49.646;14.130;2022-08-21T03:34:21;6.00;;;4.57;;
42666;SDS011;28280;49.646;14.130;2022-08-21T03:39:53;4.70;;;4.20;;
42666;SDS011;28280;49.646;14.130;2022-08-21T03:45:25;5.87;;;4.90;;
42666;SDS011;28280;49.646;14.130;2022-08-21T03:50:56;5.28;;;4.78;;
42666;SDS011;28280;49.646;14.130;2022-08-21T03:56:28;5.22;;;4.70;;
42666;SDS011;28280;49.646;14.130;2022-08-21T04:02:00;5.38;;;4.82;;
42666;SDS011;28280;49.646;14.130;2022-08-21T04:07:33;5.00;;;4.50;;
42666;SDS011;28280;49.646;14.130;2022-08-21T04:13:05;5.95;;;4.97;;
42666;SDS011;28280;49.646;14.130;2022-08-21T04:18:37;4.90;;;4.28;;
42666;SDS011;28280;49.646;14.130;2022-08-21T04:24:09;6.65;;;4.93;;
42666;SDS011;28280;49.646;14.130;2022-08-21T04:29:41;5.38;;;4.88;;
42666;SDS011;28280;49.646;14.130;2022-08-21T04:35:13;7.68;;;4.50;;
42666;SDS011;28280;49.646;14.130;2022-08-21T04:40:45;4.85;;;4.45;;
42666;SDS011;28280;49.646;14.130;2022-08-21T04:46:16;4.63;;;4.18;;
42666;SDS011;28280;49.646;14.130;2022-08-21T04:51:49;5.35;;;4.70;;
42666;SDS011;28280;49.646;14.130;2022-08-21T04:57:20;6.32;;;4.90;;
42666;SDS011;28280;49.646;14.130;2022-08-21T05:03:06;4.55;;;3.78;;
42666;SDS011;28280;49.646;14.130;2022-08-21T05:08:39;4.78;;;4.28;;
42666;SDS011;28280;49.646;14.130;2022-08-21T05:14:11;5.90;;;5.30;;
42666;SDS011;28280;49.646;14.130;2022-08-21T05:19:42;5.28;;;4.63;;
42666;SDS011;28280;49.646;14.130;2022-08-21T05:25:13;5.50;;;4.90;;
42666;SDS011;28280;49.646;14.130;2022-08-21T05:30:46;5.67;;;5.07;;
42666;SDS011;28280;49.646;14.130;2022-08-21T05:36:18;6.30;;;4.75;;
42666;SDS011;28280;49.646;14.130;2022-08-21T05:41:49;5.40;;;4.55;;
42666;SDS011;28280;49.646;14.130;2022-08-21T05:47:20;4.88;;;4.38;;
42666;SDS011;28280;49.646;14.130;2022-08-21T05:52:52;5.25;;;4.65;;
42666;SDS011;28280;49.646;14.130;2022-08-21T05:58:28;5.53;;;4.40;;
42666;SDS011;28280;49.646;14.130;2022-08-21T06:03:59;4.97;;;4.47;;
42666;SDS011;28280;49.646;14.130;2022-08-21T06:15:03;4.45;;;4.00;;
42666;SDS011;28280;49.646;14.130;2022-08-21T06:20:35;4.63;;;4.10;;
42666;SDS011;28280;49.646;14.130;2022-08-21T06:31:39;4.15;;;3.75;;
42666;SDS011;28280;49.646;14.130;2022-08-21T06:37:10;4.50;;;4.10;;
42666;SDS011;28280;49.646;14.130;2022-08-21T06:42:42;4.45;;;3.90;;
42666;SDS011;28280;49.646;14.130;2022-08-21T06:48:13;4.05;;;3.65;;
42666;SDS011;28280;49.646;14.130;2022-08-21T06:53:49;3.90;;;3.47;;
42666;SDS011;28280;49.646;14.130;2022-08-21T06:59:20;4.10;;;3.70;;
42666;SDS011;28280;49.646;14.130;2022-08-21T07:04:51;4.45;;;4.03;;
42666;SDS011;28280;49.646;14.130;2022-08-21T07:10:26;3.67;;;3.17;;
42666;SDS011;28280;49.646;14.130;2022-08-21T07:15:58;3.60;;;3.30;;
42666;SDS011;28280;49.646;14.130;2022-08-21T07:21:33;3.75;;;3.40;;
42666;SDS011;28280;49.646;14.130;2022-08-21T07:27:05;3.85;;;3.50;;
42666;SDS011;28280;49.646;14.130;2022-08-21T07:32:39;5.60;;;3.53;;
42666;SDS011;28280;49.646;14.130;2022-08-21T07:38:11;3.78;;;3.22;;
42666;SDS011;28280;49.646;14.130;2022-08-21T07:43:42;4.68;;;3.20;;
42666;SDS011;28280;49.646;14.130;2022-08-21T07:54:46;4.15;;;3.50;;
42666;SDS011;28280;49.646;14.130;2022-08-21T08:00:20;4.65;;;2.75;;
42666;SDS011;28280;49.646;14.130;2022-08-21T08:05:53;3.80;;;2.90;;
42666;SDS011;28280;49.646;14.130;2022-08-21T08:11:24;3.97;;;3.20;;
42666;SDS011;28280;49.646;14.130;2022-08-21T08:16:56;3.33;;;3.03;;
42666;SDS011;28280;49.646;14.130;2022-08-21T08:22:27;3.90;;;2.97;;
42666;SDS011;28280;49.646;14.130;2022-08-21T08:27:59;4.38;;;3.50;;
42666;SDS011;28280;49.646;14.130;2022-08-21T08:33:30;3.88;;;3.33;;
42666;SDS011;28280;49.646;14.130;2022-08-21T08:39:04;6.80;;;3.13;;
42666;SDS011;28280;49.646;14.130;2022-08-21T08:44:41;2.90;;;2.60;;
42666;SDS011;28280;49.646;14.130;2022-08-21T08:50:38;4.72;;;3.13;;
42666;SDS011;28280;49.646;14.130;2022-08-21T08:56:13;6.07;;;2.55;;
42666;SDS011;28280;49.646;14.130;2022-08-21T09:01:45;3.53;;;2.90;;
42666;SDS011;28280;49.646;14.130;2022-08-21T09:13:15;2.97;;;2.65;;
42666;SDS011;28280;49.646;14.130;2022-08-21T09:25:04;2.95;;;2.65;;
42666;SDS011;28280;49.646;14.130;2022-08-21T09:30:39;4.00;;;2.42;;
42666;SDS011;28280;49.646;14.130;2022-08-21T09:36:11;2.85;;;2.55;;
42666;SDS011;28280;49.646;14.130;2022-08-21T09:41:42;3.67;;;2.50;;
42666;SDS011;28280;49.646;14.130;2022-08-21T09:47:13;2.42;;;2.22;;
42666;SDS011;28280;49.646;14.130;2022-08-21T09:52:55;3.20;;;2.88;;
42666;SDS011;28280;49.646;14.130;2022-08-21T09:58:31;4.47;;;2.40;;
42666;SDS011;28280;49.646;14.130;2022-08-21T10:04:08;3.50;;;2.70;;
42666;SDS011;28280;49.646;14.130;2022-08-21T10:09:40;3.53;;;2.10;;
42666;SDS011;28280;49.646;14.130;2022-08-21T10:15:18;3.17;;;2.30;;
42666;SDS011;28280;49.646;14.130;2022-08-21T10:49:58;2.53;;;2.03;;
42666;SDS011;28280;49.646;14.130;2022-08-21T11:01:29;3.03;;;2.30;;
42666;SDS011;28280;49.646;14.130;2022-08-21T11:07:39;3.50;;;2.20;;
42666;SDS011;28280;49.646;14.130;2022-08-21T11:13:07;3.55;;;2.15;;
42666;SDS011;28280;49.646;14.130;2022-08-21T11:19:28;2.92;;;2.20;;
42666;SDS011;28280;49.646;14.130;2022-08-21T11:24:46;1.95;;;1.75;;
42666;SDS011;28280;49.646;14.130;2022-08-21T11:54:46;3.20;;;2.20;;
42666;SDS011;28280;49.646;14.130;2022-08-21T12:00:23;3.35;;;2.35;;
42666;SDS011;28280;49.646;14.130;2022-08-21T12:06:07;2.38;;;2.17;;
42666;SDS011;28280;49.646;14.130;2022-08-21T12:12:21;3.17;;;1.90;;
42666;SDS011;28280;49.646;14.130;2022-08-21T12:18:03;3.05;;;2.30;;
42666;SDS011;28280;49.646;14.130;2022-08-21T12:24:04;4.35;;;2.53;;
42666;SDS011;28280;49.646;14.130;2022-08-21T12:29:45;2.20;;;2.00;;
42666;SDS011;28280;49.646;14.130;2022-08-21T12:35:21;2.70;;;2.33;;
42666;SDS011;28280;49.646;14.130;2022-08-21T12:41:00;2.53;;;2.10;;
42666;SDS011;28280;49.646;14.130;2022-08-21T12:46:36;2.22;;;2.03;;
42666;SDS011;28280;49.646;14.130;2022-08-21T12:57:41;2.40;;;2.20;;
42666;SDS011;28280;49.646;14.130;2022-08-21T13:03:13;2.80;;;2.33;;
42666;SDS011;28280;49.646;14.130;2022-08-21T13:08:46;3.93;;;2.30;;
42666;SDS011;28280;49.646;14.130;2022-08-21T13:14:27;2.33;;;2.08;;
42666;SDS011;28280;49.646;14.130;2022-08-21T13:25:36;2.90;;;2.50;;
42666;SDS011;28280;49.646;14.130;2022-08-21T13:31:09;2.80;;;2.13;;
42666;SDS011;28280;49.646;14.130;2022-08-21T13:36:41;4.47;;;2.30;;
42666;SDS011;28280;49.646;14.130;2022-08-21T13:42:14;2.65;;;2.40;;
42666;SDS011;28280;49.646;14.130;2022-08-21T13:47:45;2.72;;;2.30;;
42666;SDS011;28280;49.646;14.130;2022-08-21T13:53:20;3.63;;;2.53;;
42666;SDS011;28280;49.646;14.130;2022-08-21T13:59:00;3.40;;;2.60;;
42666;SDS011;28280;49.646;14.130;2022-08-21T14:04:34;3.80;;;2.58;;
42666;SDS011;28280;49.646;14.130;2022-08-21T14:10:23;2.80;;;2.45;;
42666;SDS011;28280;49.646;14.130;2022-08-21T14:15:58;3.53;;;2.53;;
42666;SDS011;28280;49.646;14.130;2022-08-21T14:21:31;3.17;;;2.70;;
42666;SDS011;28280;49.646;14.130;2022-08-21T14:27:08;3.08;;;2.53;;
42666;SDS011;28280;49.646;14.130;2022-08-21T14:32:40;3.10;;;2.60;;
42666;SDS011;28280;49.646;14.130;2022-08-21T14:38:19;3.15;;;2.55;;
42666;SDS011;28280;49.646;14.130;2022-08-21T14:43:53;3.03;;;2.55;;
42666;SDS011;28280;49.646;14.130;2022-08-21T14:49:39;3.40;;;2.70;;
42666;SDS011;28280;49.646;14.130;2022-08-21T14:55:10;3.42;;;3.10;;
42666;SDS011;28280;49.646;14.130;2022-08-21T15:00:44;3.20;;;2.67;;
42666;SDS011;28280;49.646;14.130;2022-08-21T15:06:15;4.20;;;2.40;;
42666;SDS011;28280;49.646;14.130;2022-08-21T15:11:48;4.05;;;2.70;;
42666;SDS011;28280;49.646;14.130;2022-08-21T15:17:20;3.95;;;2.92;;
42666;SDS011;28280;49.646;14.130;2022-08-21T15:22:51;3.00;;;2.70;;
42666;SDS011;28280;49.646;14.130;2022-08-21T15:28:23;4.60;;;2.63;;
42666;SDS011;28280;49.646;14.130;2022-08-21T15:34:01;2.90;;;2.47;;
42666;SDS011;28280;49.646;14.130;2022-08-21T15:39:33;5.10;;;2.70;;
42666;SDS011;28280;49.646;14.130;2022-08-21T15:45:09;3.70;;;2.65;;
42666;SDS011;28280;49.646;14.130;2022-08-21T15:50:42;3.13;;;2.50;;
42666;SDS011;28280;49.646;14.130;2022-08-21T15:56:24;2.58;;;2.38;;
42666;SDS011;28280;49.646;14.130;2022-08-21T16:01:58;3.75;;;2.60;;
42666;SDS011;28280;49.646;14.130;2022-08-21T16:07:29;3.95;;;2.50;;
42666;SDS011;28280;49.646;14.130;2022-08-21T16:13:01;3.00;;;2.40;;
42666;SDS011;28280;49.646;14.130;2022-08-21T16:18:33;3.42;;;2.42;;
42666;SDS011;28280;49.646;14.130;2022-08-21T16:24:04;2.88;;;2.33;;
42666;SDS011;28280;49.646;14.130;2022-08-21T16:29:35;4.15;;;2.50;;
42666;SDS011;28280;49.646;14.130;2022-08-21T16:35:10;2.85;;;2.28;;
42666;SDS011;28280;49.646;14.130;2022-08-21T16:40:43;5.22;;;2.50;;
42666;SDS011;28280;49.646;14.130;2022-08-21T16:46:15;4.40;;;3.00;;
42666;SDS011;28280;49.646;14.130;2022-08-21T16:51:47;4.23;;;2.50;;
42666;SDS011;28280;49.646;14.130;2022-08-21T16:57:18;3.15;;;2.55;;
42666;SDS011;28280;49.646;14.130;2022-08-21T17:02:50;2.88;;;2.22;;
42666;SDS011;28280;49.646;14.130;2022-08-21T17:08:23;4.13;;;2.00;;
42666;SDS011;28280;49.646;14.130;2022-08-21T17:13:55;4.10;;;2.30;;
42666;SDS011;28280;49.646;14.130;2022-08-21T17:19:27;3.05;;;2.25;;
42666;SDS011;28280;49.646;14.130;2022-08-21T17:24:59;2.80;;;2.50;;
42666;SDS011;28280;49.646;14.130;2022-08-21T17:30:30;4.88;;;2.50;;
42666;SDS011;28280;49.646;14.130;2022-08-21T17:36:02;4.60;;;2.22;;
42666;SDS011;28280;49.646;14.130;2022-08-21T17:41:35;4.05;;;2.40;;
42666;SDS011;28280;49.646;14.130;2022-08-21T17:47:06;5.53;;;2.50;;
42666;SDS011;28280;49.646;14.130;2022-08-21T17:52:38;4.07;;;1.90;;
42666;SDS011;28280;49.646;14.130;2022-08-21T17:58:10;4.50;;;2.50;;
42666;SDS011;28280;49.646;14.130;2022-08-21T18:03:42;2.83;;;2.10;;
42666;SDS011;28280;49.646;14.130;2022-08-21T18:09:15;3.00;;;2.20;;
42666;SDS011;28280;49.646;14.130;2022-08-21T18:14:48;6.43;;;2.17;;
42666;SDS011;28280;49.646;14.130;2022-08-21T18:20:21;2.47;;;2.00;;
42666;SDS011;28280;49.646;14.130;2022-08-21T18:25:54;2.88;;;2.00;;
42666;SDS011;28280;49.646;14.130;2022-08-21T18:31:27;3.45;;;2.13;;
42666;SDS011;28280;49.646;14.130;2022-08-21T18:37:00;3.00;;;2.03;;
42666;SDS011;28280;49.646;14.130;2022-08-21T18:42:34;3.33;;;2.30;;
42666;SDS011;28280;49.646;14.130;2022-08-21T18:48:08;3.08;;;2.13;;
42666;SDS011;28280;49.646;14.130;2022-08-21T18:53:42;6.13;;;2.45;;
42666;SDS011;28280;49.646;14.130;2022-08-21T18:59:29;2.85;;;1.85;;
42666;SDS011;28280;49.646;14.130;2022-08-21T19:05:03;4.63;;;2.40;;
42666;SDS011;28280;49.646;14.130;2022-08-21T19:10:36;2.78;;;1.90;;
42666;SDS011;28280;49.646;14.130;2022-08-21T19:16:15;7.07;;;2.63;;
42666;SDS011;28280;49.646;14.130;2022-08-21T19:21:47;2.92;;;1.95;;
42666;SDS011;28280;49.646;14.130;2022-08-21T19:27:19;6.87;;;2.67;;
42666;SDS011;28280;49.646;14.130;2022-08-21T19:32:52;19.48;;;3.05;;
42666;SDS011;28280;49.646;14.130;2022-08-21T19:38:24;3.17;;;1.90;;
42666;SDS011;28280;49.646;14.130;2022-08-21T19:43:57;4.85;;;1.98;;
42666;SDS011;28280;49.646;14.130;2022-08-21T19:49:32;4.63;;;2.17;;
42666;SDS011;28280;49.646;14.130;2022-08-21T20:00:36;3.00;;;2.22;;
42666;SDS011;28280;49.646;14.130;2022-08-21T20:06:14;6.25;;;2.35;;
42666;SDS011;28280;49.646;14.130;2022-08-21T20:11:49;2.92;;;1.98;;
42666;SDS011;28280;49.646;14.130;2022-08-21T20:17:23;3.97;;;2.10;;
42666;SDS011;28280;49.646;14.130;2022-08-21T20:22:55;3.20;;;1.93;;
42666;SDS011;28280;49.646;14.130;2022-08-21T20:28:27;3.45;;;2.50;;
42666;SDS011;28280;49.646;14.130;2022-08-21T20:33:59;9.02;;;2.35;;
42666;SDS011;28280;49.646;14.130;2022-08-21T20:39:33;3.67;;;2.13;;
42666;SDS011;28280;49.646;14.130;2022-08-21T20:45:06;2.70;;;1.63;;
42666;SDS011;28280;49.646;14.130;2022-08-21T20:50:43;4.60;;;1.90;;
42666;SDS011;28280;49.646;14.130;2022-08-21T21:13:25;3.47;;;2.15;;
42666;SDS011;28280;49.646;14.130;2022-08-21T21:18:59;5.00;;;2.08;;
42666;SDS011;28280;49.646;14.130;2022-08-21T21:24:36;3.30;;;2.00;;
42666;SDS011;28280;49.646;14.130;2022-08-21T21:30:33;3.92;;;1.73;;
42666;SDS011;28280;49.646;14.130;2022-08-21T21:36:29;7.18;;;2.50;;
42666;SDS011;28280;49.646;14.130;2022-08-21T22:00:34;4.50;;;2.15;;
42666;SDS011;28280;49.646;14.130;2022-08-21T22:06:33;3.42;;;2.08;;
42666;SDS011;28280;49.646;14.130;2022-08-21T22:18:10;5.10;;;1.98;;
42666;SDS011;28280;49.646;14.130;2022-08-21T22:23:48;2.70;;;1.83;;
42666;SDS011;28280;49.646;14.130;2022-08-21T22:29:22;8.07;;;2.72;;
42666;SDS011;28280;49.646;14.130;2022-08-21T22:40:46;3.15;;;1.65;;
42666;SDS011;28280;49.646;14.130;2022-08-21T22:46:41;3.70;;;1.85;;
42666;SDS011;28280;49.646;14.130;2022-08-21T22:52:23;3.38;;;1.65;;
42666;SDS011;28280;49.646;14.130;2022-08-21T22:57:58;2.92;;;1.80;;
42666;SDS011;28280;49.646;14.130;2022-08-21T23:03:51;2.90;;;1.73;;
42666;SDS011;28280;49.646;14.130;2022-08-21T23:15:02;3.20;;;1.77;;
42666;SDS011;28280;49.646;14.130;2022-08-21T23:20:41;3.90;;;2.03;;
42666;SDS011;28280;49.646;14.130;2022-08-21T23:33:04;3.65;;;1.65;;
